createdAt,value
2019-06-26T00:00:44.307Z,16.40
2019-06-26T00:03:13.166Z,16.60
2019-06-26T00:05:41.820Z,16.40
2019-06-26T00:08:10.355Z,16.20
2019-06-26T00:10:39.240Z,16.10
2019-06-26T00:13:07.811Z,16.20
2019-06-26T00:15:36.734Z,16.10
2019-06-26T00:18:05.308Z,16.20
2019-06-26T00:20:33.864Z,16.10
2019-06-26T00:23:02.630Z,16.00
2019-06-26T00:25:31.176Z,16.00
2019-06-26T00:27:59.746Z,16.10
2019-06-26T00:30:28.698Z,16.10
2019-06-26T00:32:57.557Z,16.00
2019-06-26T00:35:26.111Z,15.90
2019-06-26T00:37:54.675Z,16.00
2019-06-26T00:40:23.522Z,15.90
2019-06-26T00:42:52.092Z,15.80
2019-06-26T00:45:20.573Z,15.80
2019-06-26T00:47:49.210Z,15.80
2019-06-26T00:50:18.396Z,15.80
2019-06-26T00:52:47.294Z,15.70
2019-06-26T00:55:15.831Z,15.80
2019-06-26T00:57:44.779Z,15.70
2019-06-26T01:00:13.975Z,15.80
2019-06-26T01:02:42.537Z,15.80
2019-06-26T01:05:12.828Z,15.80
2019-06-26T01:07:41.466Z,15.60
2019-06-26T01:10:11.812Z,15.50
2019-06-26T01:12:40.387Z,15.60
2019-06-26T01:15:10.258Z,15.60
2019-06-26T01:17:38.757Z,15.60
2019-06-26T01:20:08.308Z,15.50
2019-06-26T01:22:37.214Z,15.40
2019-06-26T01:25:06.574Z,15.50
2019-06-26T01:27:35.134Z,15.50
2019-06-26T01:30:07.489Z,15.60
2019-06-26T01:32:36.469Z,15.60
2019-06-26T01:35:08.544Z,15.50
2019-06-26T01:37:37.121Z,15.40
2019-06-26T01:40:10.199Z,15.40
2019-06-26T01:42:38.760Z,15.40
2019-06-26T01:45:07.481Z,15.40
2019-06-26T01:47:36.098Z,15.40
2019-06-26T01:50:06.870Z,15.20
2019-06-26T01:52:35.819Z,15.20
2019-06-26T01:55:07.710Z,15.20
2019-06-26T01:57:36.193Z,15.10
2019-06-26T02:00:08.132Z,15.30
2019-06-26T02:02:36.885Z,15.30
2019-06-26T02:05:07.407Z,15.10
2019-06-26T02:07:36.122Z,15.10
2019-06-26T02:10:08.678Z,15.10
2019-06-26T02:12:37.227Z,15.00
2019-06-26T02:15:07.236Z,15.10
2019-06-26T02:17:35.773Z,15.20
2019-06-26T02:20:07.277Z,15.20
2019-06-26T02:22:36.171Z,15.20
2019-06-26T02:25:05.891Z,15.30
2019-06-26T02:27:34.565Z,15.20
2019-06-26T02:30:03.794Z,15.10
2019-06-26T02:32:32.334Z,15.10
2019-06-26T02:35:01.283Z,15.00
2019-06-26T02:37:30.162Z,15.10
2019-06-26T02:39:58.737Z,15.30
2019-06-26T02:42:27.280Z,15.20
2019-06-26T02:44:55.841Z,15.20
2019-06-26T02:47:24.717Z,15.10
2019-06-26T02:49:53.307Z,15.10
2019-06-26T02:52:22.202Z,15.10
2019-06-26T02:54:50.773Z,15.20
2019-06-26T02:57:19.486Z,15.20
2019-06-26T02:59:48.379Z,15.10
2019-06-26T03:02:16.920Z,15.10
2019-06-26T03:04:45.860Z,15.00
2019-06-26T03:07:14.401Z,15.00
2019-06-26T03:09:42.982Z,15.00
2019-06-26T03:12:11.534Z,15.10
2019-06-26T03:14:40.125Z,15.20
2019-06-26T03:17:12.457Z,15.10
2019-06-26T03:19:41.385Z,15.20
2019-06-26T03:22:10.195Z,15.20
2019-06-26T03:24:38.750Z,15.20
2019-06-26T03:27:09.116Z,15.20
2019-06-26T03:29:37.890Z,15.20
2019-06-26T03:32:06.787Z,15.30
2019-06-26T03:34:35.680Z,15.30
2019-06-26T03:37:04.315Z,15.50
2019-06-26T03:39:33.154Z,15.40
2019-06-26T03:42:01.786Z,15.50
2019-06-26T03:44:30.337Z,15.60
2019-06-26T03:46:59.232Z,15.60
2019-06-26T03:49:28.121Z,15.70
2019-06-26T03:51:56.694Z,15.70
2019-06-26T03:54:25.605Z,15.70
2019-06-26T03:56:54.179Z,15.80
2019-06-26T03:59:22.719Z,15.80
2019-06-26T04:01:51.221Z,15.90
2019-06-26T04:04:19.766Z,15.90
2019-06-26T04:06:48.332Z,15.90
2019-06-26T04:09:16.929Z,16.00
2019-06-26T04:11:45.449Z,16.00
2019-06-26T04:14:13.994Z,16.10
2019-06-26T04:16:44.551Z,16.30
2019-06-26T04:19:13.081Z,16.40
2019-06-26T04:21:42.026Z,16.50
2019-06-26T04:24:10.563Z,16.70
2019-06-26T04:26:39.044Z,16.70
2019-06-26T04:29:07.519Z,16.60
2019-06-26T04:31:36.060Z,16.70
2019-06-26T04:34:04.867Z,16.90
2019-06-26T04:36:33.770Z,17.10
2019-06-26T04:39:02.337Z,17.40
2019-06-26T04:41:30.808Z,17.60
2019-06-26T04:43:59.307Z,17.70
2019-06-26T04:46:27.848Z,17.50
2019-06-26T04:48:56.407Z,17.60
2019-06-26T04:51:24.952Z,17.70
2019-06-26T04:53:55.686Z,17.80
2019-06-26T04:56:23.635Z,17.90
2019-06-26T04:58:52.589Z,18.20
2019-06-26T05:01:21.299Z,18.20
2019-06-26T05:03:49.868Z,18.30
2019-06-26T05:06:18.418Z,18.20
2019-06-26T05:08:46.989Z,18.30
2019-06-26T05:11:15.543Z,18.40
2019-06-26T05:13:44.364Z,18.70
2019-06-26T05:16:15.826Z,18.70
2019-06-26T05:18:43.437Z,18.70
2019-06-26T05:21:11.985Z,19.00
2019-06-26T05:23:40.549Z,19.40
2019-06-26T05:26:09.017Z,19.80
2019-06-26T05:28:37.513Z,19.70
2019-06-26T05:31:06.055Z,20.20
2019-06-26T05:33:34.550Z,19.70
2019-06-26T05:36:03.462Z,20.00
2019-06-26T05:38:32.027Z,20.20
2019-06-26T05:41:00.577Z,20.00
2019-06-26T05:43:29.142Z,20.30
2019-06-26T05:45:57.738Z,20.50
2019-06-26T05:48:26.239Z,20.90
2019-06-26T05:50:54.805Z,21.00
2019-06-26T05:53:23.608Z,20.90
2019-06-26T05:55:52.212Z,21.10
2019-06-26T05:58:20.729Z,21.10
2019-06-26T06:00:49.652Z,21.50
2019-06-26T06:03:18.544Z,21.60
2019-06-26T06:05:47.119Z,21.80
2019-06-26T06:08:16.032Z,21.90
2019-06-26T06:10:44.936Z,22.00
2019-06-26T06:13:13.471Z,22.40
2019-06-26T06:15:41.959Z,23.40
2019-06-26T06:18:16.355Z,23.90
2019-06-26T06:20:45.218Z,24.20
2019-06-26T06:25:41.993Z,27.80
2019-06-26T06:28:10.876Z,29.20
2019-06-26T06:30:39.375Z,27.70
2019-06-26T06:33:08.258Z,26.10
2019-06-26T06:35:36.862Z,25.60
2019-06-26T06:38:05.461Z,25.90
2019-06-26T06:40:33.954Z,26.60
2019-06-26T06:43:02.420Z,27.20
2019-06-26T06:45:31.125Z,28.00
2019-06-26T06:47:59.586Z,29.10
2019-06-26T06:50:28.077Z,31.60
2019-06-26T06:52:56.690Z,29.50
2019-06-26T06:55:25.553Z,28.30
2019-06-26T06:57:54.092Z,28.30
2019-06-26T07:00:24.389Z,28.60
2019-06-26T07:02:53.260Z,28.00
2019-06-26T07:05:21.851Z,27.70
2019-06-26T07:07:50.771Z,27.90
2019-06-26T07:10:19.287Z,28.30
2019-06-26T07:12:47.849Z,28.60
2019-06-26T07:15:18.466Z,28.60
2019-06-26T07:17:47.023Z,29.50
2019-06-26T07:20:15.643Z,29.70
2019-06-26T07:22:44.199Z,29.60
2019-06-26T07:25:13.381Z,29.60
2019-06-26T07:27:42.316Z,30.10
2019-06-26T07:30:11.199Z,31.80
2019-06-26T07:32:39.763Z,33.70
2019-06-26T07:35:08.567Z,33.80
2019-06-26T07:37:37.139Z,33.70
2019-06-26T07:40:08.684Z,32.00
2019-06-26T07:42:37.170Z,31.20
2019-06-26T07:45:07.163Z,31.70
2019-06-26T07:47:43.289Z,32.00
2019-06-26T07:50:07.046Z,32.00
2019-06-26T07:52:35.628Z,32.80
2019-06-26T07:55:06.753Z,35.10
2019-06-26T07:57:35.583Z,37.60
2019-06-26T08:00:06.165Z,38.90
2019-06-26T08:02:34.749Z,37.90
2019-06-26T08:05:04.147Z,36.40
2019-06-26T08:07:32.706Z,35.60
2019-06-26T08:10:01.676Z,33.90
2019-06-26T08:12:30.380Z,34.00
2019-06-26T08:14:58.854Z,36.30
2019-06-26T08:17:27.417Z,36.00
2019-06-26T08:19:55.888Z,35.40
2019-06-26T08:22:24.377Z,35.00
2019-06-26T08:24:52.924Z,37.30
2019-06-26T08:27:21.566Z,38.30
2019-06-26T08:29:50.084Z,37.90
2019-06-26T08:32:18.579Z,37.50
2019-06-26T08:34:47.410Z,37.20
2019-06-26T08:37:15.964Z,36.50
2019-06-26T08:39:44.927Z,37.80
2019-06-26T08:42:13.548Z,36.70
2019-06-26T08:44:42.109Z,36.50
2019-06-26T08:47:10.573Z,37.10
2019-06-26T08:49:39.488Z,38.10
2019-06-26T08:52:08.228Z,37.10
2019-06-26T08:54:36.786Z,36.50
2019-06-26T08:57:05.250Z,37.70
2019-06-26T08:59:33.807Z,38.30
2019-06-26T09:02:02.349Z,38.20
2019-06-26T09:04:30.882Z,37.90
2019-06-26T09:06:59.438Z,38.30
2019-06-26T09:09:27.989Z,38.30
2019-06-26T09:11:56.528Z,37.90
2019-06-26T09:14:25.102Z,38.40
2019-06-26T09:16:53.704Z,39.20
2019-06-26T09:19:22.261Z,38.00
2019-06-26T09:21:51.103Z,37.00
2019-06-26T09:24:19.667Z,37.50
2019-06-26T09:26:48.204Z,37.40
2019-06-26T09:29:17.184Z,36.30
2019-06-26T09:31:45.729Z,36.70
2019-06-26T09:34:14.286Z,36.20
2019-06-26T09:36:43.044Z,37.20
2019-06-26T09:39:11.940Z,37.30
2019-06-26T09:41:40.489Z,37.30
2019-06-26T09:44:09.039Z,38.40
2019-06-26T09:46:37.585Z,38.70
2019-06-26T09:49:06.601Z,38.60
2019-06-26T09:51:35.136Z,37.60
2019-06-26T09:54:04.089Z,37.20
2019-06-26T09:56:32.621Z,36.70
2019-06-26T09:59:01.264Z,36.10
2019-06-26T10:01:30.160Z,36.90
2019-06-26T10:03:58.945Z,37.50
2019-06-26T10:06:27.476Z,36.20
2019-06-26T10:08:55.971Z,37.20
2019-06-26T10:11:24.522Z,38.20
2019-06-26T10:13:53.078Z,37.60
2019-06-26T10:16:21.620Z,37.90
2019-06-26T10:18:50.178Z,36.30
2019-06-26T10:21:18.720Z,36.20
2019-06-26T10:23:48.620Z,36.30
2019-06-26T10:26:17.184Z,37.90
2019-06-26T10:28:46.056Z,38.70
2019-06-26T10:31:18.373Z,38.90
2019-06-26T10:33:46.261Z,38.40
2019-06-26T10:36:15.202Z,38.10
2019-06-26T10:38:44.201Z,38.60
2019-06-26T10:41:13.092Z,37.80
2019-06-26T10:43:41.560Z,36.60
2019-06-26T10:46:10.123Z,37.30
2019-06-26T10:48:38.662Z,38.20
2019-06-26T10:51:07.594Z,37.10
2019-06-26T10:53:36.088Z,37.50
2019-06-26T10:56:04.780Z,38.40
2019-06-26T10:58:33.335Z,37.80
2019-06-26T11:01:01.948Z,36.70
2019-06-26T11:03:30.802Z,36.20
2019-06-26T11:05:59.590Z,36.40
2019-06-26T11:08:28.484Z,37.30
2019-06-26T11:10:57.058Z,37.40
2019-06-26T11:13:25.595Z,36.00
2019-06-26T11:15:54.153Z,37.00
2019-06-26T11:18:22.711Z,38.00
2019-06-26T11:20:51.270Z,37.60
2019-06-26T11:23:19.829Z,38.50
2019-06-26T11:25:48.380Z,38.70
2019-06-26T11:28:16.912Z,38.40
2019-06-26T11:30:45.414Z,39.00
2019-06-26T11:33:13.956Z,38.50
2019-06-26T11:35:42.519Z,39.10
2019-06-26T11:38:10.987Z,39.80
2019-06-26T11:40:39.486Z,39.20
2019-06-26T11:43:08.208Z,40.10
2019-06-26T11:45:36.982Z,38.70
2019-06-26T11:48:05.867Z,36.50
2019-06-26T11:50:34.424Z,37.40
2019-06-26T11:53:03.192Z,37.00
2019-06-26T11:55:32.072Z,36.70
2019-06-26T11:58:00.543Z,37.80
2019-06-26T12:00:31.229Z,38.20
2019-06-26T12:02:59.743Z,38.30
2019-06-26T12:05:37.178Z,39.60
2019-06-26T12:08:05.726Z,39.10
2019-06-26T12:10:34.658Z,38.60
2019-06-26T12:13:04.403Z,36.40
2019-06-26T12:15:32.965Z,37.60
2019-06-26T12:18:01.436Z,38.10
2019-06-26T12:20:29.998Z,37.80
2019-06-26T12:22:58.540Z,38.60
2019-06-26T12:25:27.087Z,37.00
2019-06-26T12:27:55.655Z,37.20
2019-06-26T12:30:24.270Z,37.60
2019-06-26T12:33:02.951Z,37.50
2019-06-26T12:35:23.373Z,37.10
2019-06-26T12:37:51.876Z,38.40
2019-06-26T12:40:20.796Z,39.90
2019-06-26T12:42:49.281Z,40.00
2019-06-26T12:45:17.952Z,39.60
2019-06-26T12:47:46.454Z,39.10
2019-06-26T12:50:16.043Z,38.40
2019-06-26T12:52:44.959Z,39.30
2019-06-26T12:55:14.296Z,38.40
2019-06-26T12:57:42.792Z,36.90
2019-06-26T13:00:12.879Z,37.80
2019-06-26T13:02:41.603Z,37.40
2019-06-26T13:05:10.208Z,37.60
2019-06-26T13:07:38.773Z,38.00
2019-06-26T13:10:08.559Z,37.80
2019-06-26T13:12:37.506Z,37.30
2019-06-26T13:15:07.786Z,37.40
2019-06-26T13:17:36.484Z,38.20
2019-06-26T13:20:10.145Z,39.30
2019-06-26T13:22:38.234Z,38.70
2019-06-26T13:25:09.352Z,38.00
2019-06-26T13:27:37.990Z,38.30
2019-06-26T13:30:07.870Z,37.80
2019-06-26T13:32:36.601Z,38.50
2019-06-26T13:35:07.558Z,39.00
2019-06-26T13:37:36.147Z,39.70
2019-06-26T13:40:07.376Z,38.50
2019-06-26T13:42:35.939Z,37.40
2019-06-26T13:45:06.823Z,36.80
2019-06-26T13:47:35.393Z,37.20
2019-06-26T13:50:06.942Z,38.10
2019-06-26T13:52:35.509Z,37.80
2019-06-26T13:55:05.391Z,37.50
2019-06-26T13:57:33.951Z,36.70
2019-06-26T14:00:03.090Z,38.00
2019-06-26T14:02:32.036Z,38.40
2019-06-26T14:05:00.512Z,37.60
2019-06-26T14:07:29.431Z,37.50
2019-06-26T14:09:57.989Z,38.50
2019-06-26T14:12:26.485Z,37.30
2019-06-26T14:14:57.830Z,36.80
2019-06-26T14:17:25.237Z,36.80
2019-06-26T14:19:54.131Z,37.20
2019-06-26T14:22:23.004Z,37.60
2019-06-26T14:24:54.155Z,37.80
2019-06-26T14:27:22.330Z,37.80
2019-06-26T14:29:51.222Z,37.70
2019-06-26T14:32:19.783Z,38.10
2019-06-26T14:34:48.287Z,38.30
2019-06-26T14:37:16.824Z,38.40
2019-06-26T14:39:45.373Z,37.50
2019-06-26T14:42:13.836Z,37.00
2019-06-26T14:44:42.341Z,36.30
2019-06-26T14:47:10.870Z,37.90
2019-06-26T14:49:39.731Z,37.00
2019-06-26T14:52:08.275Z,36.20
2019-06-26T14:54:37.205Z,35.70
2019-06-26T14:57:05.755Z,36.00
2019-06-26T14:59:34.396Z,37.40
2019-06-26T15:02:03.168Z,37.80
2019-06-26T15:04:32.068Z,37.40
2019-06-26T15:07:00.533Z,35.70
2019-06-26T15:09:29.032Z,36.10
2019-06-26T15:11:57.564Z,36.70
2019-06-26T15:14:26.126Z,36.90
2019-06-26T15:16:54.682Z,36.80
2019-06-26T15:19:23.605Z,37.70
2019-06-26T15:21:58.528Z,37.20
2019-06-26T15:24:22.694Z,37.00
2019-06-26T15:26:51.177Z,37.40
2019-06-26T15:29:19.772Z,36.90
2019-06-26T15:31:48.321Z,37.10
2019-06-26T15:34:16.896Z,37.90
2019-06-26T15:36:45.456Z,37.20
2019-06-26T15:39:14.014Z,36.80
2019-06-26T15:41:42.556Z,37.80
2019-06-26T15:44:11.130Z,36.80
2019-06-26T15:46:39.669Z,36.00
2019-06-26T15:49:08.237Z,36.10
2019-06-26T15:51:36.783Z,36.10
2019-06-26T15:54:05.362Z,36.50
2019-06-26T15:56:33.905Z,36.30
2019-06-26T15:59:02.397Z,36.30
2019-06-26T16:01:30.940Z,37.70
2019-06-26T16:03:59.843Z,38.80
2019-06-26T16:06:28.387Z,36.90
2019-06-26T16:08:56.968Z,37.10
2019-06-26T16:11:25.649Z,35.80
2019-06-26T16:13:54.505Z,35.90
2019-06-26T16:16:23.516Z,36.30
2019-06-26T16:18:59.479Z,37.60
2019-06-26T16:21:28.072Z,36.90
2019-06-26T16:23:59.400Z,36.70
2019-06-26T16:26:27.963Z,36.80
2019-06-26T16:28:56.531Z,37.40
2019-06-26T16:31:25.144Z,36.70
2019-06-26T16:33:54.007Z,35.80
2019-06-26T16:36:23.079Z,35.40
2019-06-26T16:38:51.629Z,35.10
2019-06-26T16:41:20.538Z,35.30
2019-06-26T16:43:49.080Z,35.80
2019-06-26T16:46:31.122Z,35.10
2019-06-26T16:48:59.668Z,36.20
2019-06-26T16:51:28.243Z,35.50
2019-06-26T16:53:56.786Z,36.00
2019-06-26T16:56:25.612Z,36.40
2019-06-26T16:58:54.481Z,34.90
2019-06-26T17:01:23.056Z,35.10
2019-06-26T17:03:51.603Z,34.40
2019-06-26T17:06:20.167Z,34.70
2019-06-26T17:08:48.634Z,34.90
2019-06-26T17:11:17.202Z,35.40
2019-06-26T17:13:46.101Z,34.30
2019-06-26T17:16:14.678Z,34.00
2019-06-26T17:18:43.153Z,34.60
2019-06-26T17:21:11.724Z,33.80
2019-06-26T17:23:40.272Z,33.90
2019-06-26T17:26:08.837Z,33.40
2019-06-26T17:28:37.396Z,33.30
2019-06-26T17:31:05.967Z,33.30
2019-06-26T17:33:34.805Z,33.30
2019-06-26T17:36:03.372Z,33.20
2019-06-26T17:38:31.925Z,33.20
2019-06-26T17:41:00.493Z,33.10
2019-06-26T17:43:28.967Z,32.80
2019-06-26T17:45:57.750Z,32.70
2019-06-26T17:48:26.292Z,32.50
2019-06-26T17:50:54.863Z,32.10
2019-06-26T17:53:23.714Z,32.20
2019-06-26T17:55:52.279Z,32.20
2019-06-26T17:58:21.103Z,32.10
2019-06-26T18:00:50.008Z,31.80
2019-06-26T18:03:18.548Z,31.70
2019-06-26T18:05:47.094Z,31.70
2019-06-26T18:08:15.661Z,31.30
2019-06-26T18:10:44.210Z,31.30
2019-06-26T18:13:12.776Z,31.10
2019-06-26T18:15:41.329Z,30.90
2019-06-26T18:18:10.215Z,30.70
2019-06-26T18:20:38.748Z,30.50
2019-06-26T18:23:08.119Z,30.10
2019-06-26T18:25:36.863Z,29.80
2019-06-26T18:28:05.456Z,29.60
2019-06-26T18:30:34.285Z,29.40
2019-06-26T18:33:02.866Z,29.20
2019-06-26T18:35:31.785Z,29.10
2019-06-26T18:38:00.351Z,28.90
2019-06-26T18:40:28.900Z,28.50
2019-06-26T18:42:57.471Z,28.60
2019-06-26T18:45:26.025Z,28.40
2019-06-26T18:47:54.586Z,28.10
2019-06-26T18:50:23.067Z,28.20
2019-06-26T18:52:51.697Z,28.30
2019-06-26T18:55:20.260Z,28.30
2019-06-26T18:57:49.176Z,28.00
2019-06-26T19:00:18.059Z,28.00
2019-06-26T19:02:46.629Z,27.90
2019-06-26T19:05:15.193Z,27.90
2019-06-26T19:07:44.036Z,27.60
2019-06-26T19:10:12.851Z,27.30
2019-06-26T19:12:41.425Z,27.20
2019-06-26T19:15:10.749Z,27.20
2019-06-26T19:17:42.441Z,27.20
2019-06-26T19:20:10.383Z,27.10
2019-06-26T19:22:38.923Z,26.90
2019-06-26T19:25:08.935Z,26.80
2019-06-26T19:27:37.861Z,26.50
2019-06-26T19:30:07.766Z,26.60
2019-06-26T19:32:37.652Z,26.50
2019-06-26T19:35:18.417Z,26.30
2019-06-26T19:37:36.673Z,26.20
2019-06-26T19:40:08.765Z,26.20
2019-06-26T19:42:37.066Z,26.10
2019-06-26T19:45:08.424Z,25.90
2019-06-26T19:47:36.986Z,26.00
2019-06-26T19:50:07.092Z,25.80
2019-06-26T19:52:35.698Z,25.90
2019-06-26T19:55:05.686Z,25.90
2019-06-26T19:57:34.259Z,26.00
2019-06-26T20:00:03.052Z,26.00
2019-06-26T20:02:31.628Z,25.80
2019-06-26T20:05:00.177Z,25.70
2019-06-26T20:07:28.760Z,25.60
2019-06-26T20:09:57.305Z,25.50
2019-06-26T20:12:26.166Z,25.30
2019-06-26T20:14:54.752Z,25.40
2019-06-26T20:17:23.301Z,25.20
2019-06-26T20:19:51.876Z,25.00
2019-06-26T20:22:20.417Z,25.00
2019-06-26T20:24:48.921Z,24.90
2019-06-26T20:27:17.466Z,24.50
2019-06-26T20:29:46.048Z,24.70
2019-06-26T20:32:14.596Z,24.70
2019-06-26T20:34:43.157Z,24.50
2019-06-26T20:37:12.057Z,24.40
2019-06-26T20:39:40.618Z,24.40
2019-06-26T20:42:09.529Z,24.30
2019-06-26T20:44:38.033Z,24.20
2019-06-26T20:47:06.580Z,24.00
2019-06-26T20:49:35.150Z,24.20
2019-06-26T20:52:03.701Z,24.20
2019-06-26T20:54:32.272Z,23.90
2019-06-26T20:57:00.836Z,23.90
2019-06-26T20:59:29.407Z,24.00
2019-06-26T21:01:57.885Z,23.90
2019-06-26T21:04:26.724Z,23.70
2019-06-26T21:06:55.271Z,23.50
2019-06-26T21:09:24.221Z,23.70
2019-06-26T21:11:52.757Z,23.70
2019-06-26T21:14:21.695Z,23.40
2019-06-26T21:16:50.241Z,23.30
2019-06-26T21:19:18.816Z,23.30
2019-06-26T21:21:47.664Z,23.10
2019-06-26T21:24:16.225Z,23.10
2019-06-26T21:26:44.773Z,23.10
2019-06-26T21:29:13.534Z,23.20
2019-06-26T21:31:42.421Z,23.20
2019-06-26T21:34:11.005Z,23.10
2019-06-26T21:36:39.561Z,23.20
2019-06-26T21:39:08.394Z,22.90
2019-06-26T21:41:37.348Z,22.90
2019-06-26T21:44:05.852Z,22.90
2019-06-26T21:46:34.402Z,22.90
2019-06-26T21:49:03.259Z,23.00
2019-06-26T21:51:32.155Z,23.00
2019-06-26T21:54:00.728Z,22.90
2019-06-26T21:56:29.557Z,22.80
2019-06-26T21:58:58.108Z,22.90
2019-06-26T22:01:27.019Z,22.70
2019-06-26T22:03:55.916Z,22.80
2019-06-26T22:06:24.496Z,22.70
2019-06-26T22:08:53.048Z,22.80
2019-06-26T22:11:21.620Z,22.70
2019-06-26T22:13:50.168Z,22.80
2019-06-26T22:16:18.741Z,22.80
2019-06-26T22:18:47.218Z,22.80
2019-06-26T22:21:15.804Z,22.70
2019-06-26T22:23:44.351Z,22.70
2019-06-26T22:26:14.349Z,22.70
2019-06-26T22:28:43.086Z,22.70
2019-06-26T22:31:11.647Z,22.70
2019-06-26T22:33:40.509Z,22.60
2019-06-26T22:36:09.131Z,22.50
2019-06-26T22:38:37.771Z,22.70
2019-06-26T22:41:06.686Z,22.70
2019-06-26T22:43:35.581Z,22.80
2019-06-26T22:46:04.497Z,22.80
2019-06-26T22:48:33.020Z,22.60
2019-06-26T22:51:01.861Z,22.60
2019-06-26T22:53:30.416Z,22.70
2019-06-26T22:56:07.651Z,22.50
2019-06-26T22:58:29.190Z,22.50
2019-06-26T23:00:57.787Z,22.50
2019-06-26T23:03:26.334Z,22.40
2019-06-26T23:05:54.907Z,22.40
2019-06-26T23:08:23.472Z,22.40
2019-06-26T23:10:52.026Z,22.20
2019-06-26T23:13:20.584Z,22.30
2019-06-26T23:15:49.176Z,22.30
2019-06-26T23:18:17.712Z,22.20
2019-06-26T23:20:46.284Z,22.10
2019-06-26T23:23:14.829Z,22.00
2019-06-26T23:25:43.634Z,21.90
2019-06-26T23:28:12.177Z,22.00
2019-06-26T23:30:40.762Z,22.10
2019-06-26T23:33:09.610Z,22.10
2019-06-26T23:35:38.184Z,22.00
2019-06-26T23:38:06.727Z,22.10
2019-06-26T23:40:35.575Z,21.90
2019-06-26T23:43:04.128Z,21.80
2019-06-26T23:45:32.685Z,21.80
2019-06-26T23:48:01.537Z,21.50
2019-06-26T23:50:30.096Z,21.50
2019-06-26T23:52:59.055Z,21.60
2019-06-26T23:55:27.572Z,21.30
2019-06-26T23:57:59.409Z,21.40
